Annona, Texas
Current Conditions -  °F | °C
As of 1:15 AM on Thursday 23 Oct 2014 (Local Time) from K4O4 Reporting Station
Clear Clear  
Wind Chill: 57°   Ceiling: Unl
Heat Index: 57°   Visibility: 10mi
Dew Point: 52°   Wind: 7mph
Humidity: 82%   Direction: 90°E
Pressure: 30.14"   Gusts: NA
Location:  33.58°N, 94.92°W
Report Text: K4O4 230615Z AUTO 09006KT 10SM CLR 14/11 A3014 RMK AO2
Loading
Personal Weather Stations






























Interactive Weather Map New forecast layout! Learn more

10-Day Weather Forecast

Advertisements
Track Severe Weather on mobile